Accueil
METAR-TAF:

METAR-TAF

Aéroports :

Luni

Sarzana, Italie

latitude: 44-05N, longitude: 009-59E, altitude: 9 m

Observation

Le bulletin a été fait il y a 12 heures et 2 minutes, à 10:55 UTC
Vent 7 kt de nord-ouest
Température 14°C
Humidité 10%
Pression 1016 hPa
Visibilité 10 km ou plus
pas de nuages en-dessous de 1500 mètres et pas de cumulonimbus.

METAR: LIQW 281055Z 31007KT CAVOK 14/M17 Q1016 RMK SKC VIS MIN 9999 WIND THR18 35008KT BLU

Heure: 23:57 (22:57 UTC)

Prévision

Le bulletin a été fait il y a 14 heures et 57 minutes, à 08:00 UTC
Prévision valable du 28 à 09 UTC au 28 à 18 UTC
Vent 8 kt de ouest
Visibilité 10 km ou plus
pas de nuages en-dessous de 1500 mètres et pas de cumulonimbus.

TAF: LIQW 280800Z 2809/2818 28008KT CAVOK

Observations et prévisions météorologiques de plus de 4000 aéroports (messages METAR et TAF).

Les stations disponibles sont représentées par des disques jaunes et rouges sur la carte.

Passer la souris dessus pour voir le nom de la station.

Cliquer dessus pour voir les observations et prévisions météorologiques.

Pour changer de carte: cliquez sur les boutons verts avec une croix noire pour zoomer, sur le bouton vert avec un tiret pour effectuer un zoom arrière, ou sur les flèches vertes pour les cartes adjacentes.


METAR-TAF: